sensor_id;sensor_type;location;lat;lon;timestamp;P1;durP1;ratioP1;P2;durP2;ratioP2
40707;SDS011;26392;42.696;23.350;2022-07-18T00:02:16;6.85;;;2.20;;
40707;SDS011;26392;42.696;23.350;2022-07-18T00:04:42;5.65;;;2.30;;
40707;SDS011;26392;42.696;23.350;2022-07-18T00:07:08;3.55;;;2.00;;
40707;SDS011;26392;42.696;23.350;2022-07-18T00:09:35;4.57;;;2.30;;
40707;SDS011;26392;42.696;23.350;2022-07-18T00:12:02;3.30;;;2.22;;
40707;SDS011;26392;42.696;23.350;2022-07-18T00:14:29;2.55;;;1.90;;
40707;SDS011;26392;42.696;23.350;2022-07-18T00:16:54;2.92;;;2.08;;
40707;SDS011;26392;42.696;23.350;2022-07-18T00:19:20;3.10;;;2.22;;
40707;SDS011;26392;42.696;23.350;2022-07-18T00:21:45;2.90;;;2.03;;
40707;SDS011;26392;42.696;23.350;2022-07-18T00:24:11;2.70;;;2.05;;
40707;SDS011;26392;42.696;23.350;2022-07-18T00:26:36;3.30;;;1.73;;
40707;SDS011;26392;42.696;23.350;2022-07-18T00:29:02;2.00;;;1.60;;
40707;SDS011;26392;42.696;23.350;2022-07-18T00:31:27;4.15;;;2.10;;
40707;SDS011;26392;42.696;23.350;2022-07-18T00:33:53;3.92;;;2.10;;
40707;SDS011;26392;42.696;23.350;2022-07-18T00:36:18;2.83;;;1.70;;
40707;SDS011;26392;42.696;23.350;2022-07-18T00:38:44;7.97;;;2.13;;
40707;SDS011;26392;42.696;23.350;2022-07-18T00:41:09;3.35;;;1.70;;
40707;SDS011;26392;42.696;23.350;2022-07-18T00:43:39;1.58;;;1.48;;
40707;SDS011;26392;42.696;23.350;2022-07-18T00:46:05;2.30;;;1.60;;
40707;SDS011;26392;42.696;23.350;2022-07-18T00:48:30;5.20;;;2.00;;
40707;SDS011;26392;42.696;23.350;2022-07-18T00:50:56;2.58;;;1.92;;
40707;SDS011;26392;42.696;23.350;2022-07-18T00:53:21;3.75;;;1.88;;
40707;SDS011;26392;42.696;23.350;2022-07-18T00:55:49;3.03;;;2.00;;
40707;SDS011;26392;42.696;23.350;2022-07-18T00:58:16;2.85;;;1.70;;
40707;SDS011;26392;42.696;23.350;2022-07-18T01:00:41;3.42;;;1.73;;
40707;SDS011;26392;42.696;23.350;2022-07-18T01:03:26;1.90;;;1.60;;
40707;SDS011;26392;42.696;23.350;2022-07-18T01:05:52;2.75;;;1.75;;
40707;SDS011;26392;42.696;23.350;2022-07-18T01:08:18;2.38;;;1.70;;
40707;SDS011;26392;42.696;23.350;2022-07-18T01:10:43;2.10;;;1.50;;
40707;SDS011;26392;42.696;23.350;2022-07-18T01:13:09;2.78;;;1.70;;
40707;SDS011;26392;42.696;23.350;2022-07-18T01:15:34;3.30;;;1.33;;
40707;SDS011;26392;42.696;23.350;2022-07-18T01:18:01;1.98;;;1.42;;
40707;SDS011;26392;42.696;23.350;2022-07-18T01:20:27;2.53;;;1.80;;
40707;SDS011;26392;42.696;23.350;2022-07-18T01:22:54;3.70;;;1.50;;
40707;SDS011;26392;42.696;23.350;2022-07-18T01:25:19;1.98;;;1.50;;
40707;SDS011;26392;42.696;23.350;2022-07-18T01:27:45;1.73;;;1.42;;
40707;SDS011;26392;42.696;23.350;2022-07-18T01:30:10;4.07;;;1.48;;
40707;SDS011;26392;42.696;23.350;2022-07-18T01:32:36;1.85;;;1.42;;
40707;SDS011;26392;42.696;23.350;2022-07-18T01:35:01;1.80;;;1.38;;
40707;SDS011;26392;42.696;23.350;2022-07-18T01:37:27;6.13;;;1.40;;
40707;SDS011;26392;42.696;23.350;2022-07-18T01:39:52;3.45;;;1.80;;
40707;SDS011;26392;42.696;23.350;2022-07-18T01:42:17;3.45;;;1.35;;
40707;SDS011;26392;42.696;23.350;2022-07-18T01:44:44;1.40;;;1.30;;
40707;SDS011;26392;42.696;23.350;2022-07-18T01:47:10;6.43;;;1.42;;
40707;SDS011;26392;42.696;23.350;2022-07-18T01:49:36;1.98;;;1.40;;
40707;SDS011;26392;42.696;23.350;2022-07-18T01:52:03;1.85;;;1.20;;
40707;SDS011;26392;42.696;23.350;2022-07-18T01:54:29;4.40;;;1.63;;
40707;SDS011;26392;42.696;23.350;2022-07-18T01:56:56;3.15;;;1.60;;
40707;SDS011;26392;42.696;23.350;2022-07-18T01:59:23;4.47;;;1.60;;
40707;SDS011;26392;42.696;23.350;2022-07-18T02:01:49;1.85;;;1.50;;
40707;SDS011;26392;42.696;23.350;2022-07-18T02:04:14;4.82;;;1.50;;
40707;SDS011;26392;42.696;23.350;2022-07-18T02:06:40;2.85;;;1.60;;
40707;SDS011;26392;42.696;23.350;2022-07-18T02:09:06;2.35;;;1.42;;
40707;SDS011;26392;42.696;23.350;2022-07-18T02:11:33;2.08;;;1.60;;
40707;SDS011;26392;42.696;23.350;2022-07-18T02:13:59;2.78;;;1.73;;
40707;SDS011;26392;42.696;23.350;2022-07-18T02:16:24;3.08;;;1.60;;
40707;SDS011;26392;42.696;23.350;2022-07-18T02:18:50;2.15;;;1.35;;
40707;SDS011;26392;42.696;23.350;2022-07-18T02:21:15;1.73;;;1.40;;
40707;SDS011;26392;42.696;23.350;2022-07-18T02:23:41;4.15;;;1.48;;
40707;SDS011;26392;42.696;23.350;2022-07-18T02:26:08;3.33;;;1.40;;
40707;SDS011;26392;42.696;23.350;2022-07-18T02:28:34;2.03;;;1.73;;
40707;SDS011;26392;42.696;23.350;2022-07-18T02:31:00;2.33;;;1.40;;
40707;SDS011;26392;42.696;23.350;2022-07-18T02:33:25;2.15;;;1.33;;
40707;SDS011;26392;42.696;23.350;2022-07-18T02:35:51;3.10;;;1.60;;
40707;SDS011;26392;42.696;23.350;2022-07-18T02:38:17;2.15;;;1.40;;
40707;SDS011;26392;42.696;23.350;2022-07-18T02:40:42;2.63;;;1.55;;
40707;SDS011;26392;42.696;23.350;2022-07-18T02:43:08;5.43;;;2.20;;
40707;SDS011;26392;42.696;23.350;2022-07-18T02:45:33;4.00;;;1.40;;
40707;SDS011;26392;42.696;23.350;2022-07-18T02:47:59;1.60;;;1.23;;
40707;SDS011;26392;42.696;23.350;2022-07-18T02:50:24;2.17;;;1.45;;
40707;SDS011;26392;42.696;23.350;2022-07-18T02:52:50;1.55;;;1.35;;
40707;SDS011;26392;42.696;23.350;2022-07-18T02:55:16;2.20;;;1.58;;
40707;SDS011;26392;42.696;23.350;2022-07-18T02:57:41;4.50;;;1.55;;
40707;SDS011;26392;42.696;23.350;2022-07-18T03:00:09;1.85;;;1.45;;
40707;SDS011;26392;42.696;23.350;2022-07-18T03:02:37;2.95;;;1.40;;
40707;SDS011;26392;42.696;23.350;2022-07-18T03:05:03;2.58;;;1.48;;
40707;SDS011;26392;42.696;23.350;2022-07-18T03:07:29;2.70;;;1.20;;
40707;SDS011;26392;42.696;23.350;2022-07-18T03:09:55;2.85;;;1.50;;
40707;SDS011;26392;42.696;23.350;2022-07-18T03:12:21;1.60;;;1.17;;
40707;SDS011;26392;42.696;23.350;2022-07-18T03:14:46;2.75;;;1.48;;
40707;SDS011;26392;42.696;23.350;2022-07-18T03:17:12;6.03;;;1.70;;
40707;SDS011;26392;42.696;23.350;2022-07-18T03:19:37;2.58;;;1.30;;
40707;SDS011;26392;42.696;23.350;2022-07-18T03:22:03;2.97;;;1.42;;
40707;SDS011;26392;42.696;23.350;2022-07-18T03:24:29;2.20;;;1.40;;
40707;SDS011;26392;42.696;23.350;2022-07-18T03:26:55;1.33;;;1.17;;
40707;SDS011;26392;42.696;23.350;2022-07-18T03:29:21;2.50;;;1.17;;
40707;SDS011;26392;42.696;23.350;2022-07-18T03:31:46;1.85;;;1.30;;
40707;SDS011;26392;42.696;23.350;2022-07-18T03:34:12;2.47;;;1.15;;
40707;SDS011;26392;42.696;23.350;2022-07-18T03:36:38;1.92;;;1.52;;
40707;SDS011;26392;42.696;23.350;2022-07-18T03:39:04;2.45;;;1.83;;
40707;SDS011;26392;42.696;23.350;2022-07-18T03:41:30;2.47;;;1.30;;
40707;SDS011;26392;42.696;23.350;2022-07-18T03:43:56;2.08;;;1.17;;
40707;SDS011;26392;42.696;23.350;2022-07-18T03:46:21;1.83;;;1.33;;
40707;SDS011;26392;42.696;23.350;2022-07-18T03:48:48;9.30;;;2.30;;
40707;SDS011;26392;42.696;23.350;2022-07-18T03:51:14;4.05;;;2.42;;
40707;SDS011;26392;42.696;23.350;2022-07-18T03:53:39;8.13;;;2.63;;
40707;SDS011;26392;42.696;23.350;2022-07-18T03:56:05;6.88;;;2.20;;
40707;SDS011;26392;42.696;23.350;2022-07-18T03:58:31;7.22;;;2.50;;
40707;SDS011;26392;42.696;23.350;2022-07-18T04:00:56;8.57;;;2.60;;
40707;SDS011;26392;42.696;23.350;2022-07-18T04:03:22;4.10;;;2.22;;
40707;SDS011;26392;42.696;23.350;2022-07-18T04:05:47;4.30;;;2.65;;
40707;SDS011;26392;42.696;23.350;2022-07-18T04:08:13;7.78;;;2.53;;
40707;SDS011;26392;42.696;23.350;2022-07-18T04:10:39;8.68;;;2.50;;
40707;SDS011;26392;42.696;23.350;2022-07-18T04:13:05;4.35;;;2.67;;
40707;SDS011;26392;42.696;23.350;2022-07-18T04:15:31;7.65;;;2.45;;
40707;SDS011;26392;42.696;23.350;2022-07-18T04:17:57;3.47;;;2.30;;
40707;SDS011;26392;42.696;23.350;2022-07-18T04:20:22;7.25;;;2.65;;
40707;SDS011;26392;42.696;23.350;2022-07-18T04:22:49;4.38;;;2.13;;
40707;SDS011;26392;42.696;23.350;2022-07-18T04:25:22;6.72;;;2.72;;
40707;SDS011;26392;42.696;23.350;2022-07-18T04:27:50;4.05;;;2.38;;
40707;SDS011;26392;42.696;23.350;2022-07-18T04:30:16;6.18;;;2.20;;
40707;SDS011;26392;42.696;23.350;2022-07-18T04:32:44;3.13;;;1.70;;
40707;SDS011;26392;42.696;23.350;2022-07-18T04:35:10;2.20;;;2.00;;
40707;SDS011;26392;42.696;23.350;2022-07-18T04:37:36;3.38;;;1.75;;
40707;SDS011;26392;42.696;23.350;2022-07-18T04:40:06;6.70;;;2.08;;
40707;SDS011;26392;42.696;23.350;2022-07-18T04:42:33;8.20;;;2.50;;
40707;SDS011;26392;42.696;23.350;2022-07-18T04:44:59;7.80;;;2.28;;
40707;SDS011;26392;42.696;23.350;2022-07-18T04:47:25;3.58;;;2.40;;
40707;SDS011;26392;42.696;23.350;2022-07-18T04:49:51;5.55;;;2.80;;
40707;SDS011;26392;42.696;23.350;2022-07-18T04:52:17;9.05;;;2.85;;
40707;SDS011;26392;42.696;23.350;2022-07-18T04:54:43;3.95;;;2.70;;
40707;SDS011;26392;42.696;23.350;2022-07-18T04:57:08;7.97;;;2.80;;
40707;SDS011;26392;42.696;23.350;2022-07-18T04:59:36;8.65;;;3.03;;
40707;SDS011;26392;42.696;23.350;2022-07-18T05:02:02;7.25;;;2.90;;
40707;SDS011;26392;42.696;23.350;2022-07-18T05:04:27;10.75;;;3.47;;
40707;SDS011;26392;42.696;23.350;2022-07-18T05:06:53;7.72;;;3.75;;
40707;SDS011;26392;42.696;23.350;2022-07-18T05:09:19;14.48;;;3.80;;
40707;SDS011;26392;42.696;23.350;2022-07-18T05:11:44;5.78;;;4.03;;
40707;SDS011;26392;42.696;23.350;2022-07-18T05:14:10;8.57;;;3.53;;
40707;SDS011;26392;42.696;23.350;2022-07-18T05:16:35;5.00;;;3.13;;
40707;SDS011;26392;42.696;23.350;2022-07-18T05:19:01;9.38;;;3.25;;
40707;SDS011;26392;42.696;23.350;2022-07-18T05:21:26;8.70;;;3.90;;
40707;SDS011;26392;42.696;23.350;2022-07-18T05:23:51;9.30;;;3.45;;
40707;SDS011;26392;42.696;23.350;2022-07-18T05:26:17;8.25;;;3.00;;
40707;SDS011;26392;42.696;23.350;2022-07-18T05:28:42;11.90;;;3.20;;
40707;SDS011;26392;42.696;23.350;2022-07-18T05:31:08;14.93;;;3.45;;
40707;SDS011;26392;42.696;23.350;2022-07-18T05:33:33;10.88;;;3.47;;
40707;SDS011;26392;42.696;23.350;2022-07-18T05:35:58;13.52;;;3.08;;
40707;SDS011;26392;42.696;23.350;2022-07-18T05:38:24;9.68;;;3.40;;
40707;SDS011;26392;42.696;23.350;2022-07-18T05:40:49;10.63;;;3.03;;
40707;SDS011;26392;42.696;23.350;2022-07-18T05:43:15;14.18;;;3.45;;
40707;SDS011;26392;42.696;23.350;2022-07-18T05:45:40;6.00;;;2.28;;
40707;SDS011;26392;42.696;23.350;2022-07-18T05:48:06;3.00;;;1.63;;
40707;SDS011;26392;42.696;23.350;2022-07-18T05:50:32;3.58;;;2.20;;
40707;SDS011;26392;42.696;23.350;2022-07-18T05:52:57;3.58;;;1.90;;
40707;SDS011;26392;42.696;23.350;2022-07-18T05:55:23;2.45;;;1.58;;
40707;SDS011;26392;42.696;23.350;2022-07-18T05:57:48;2.40;;;1.63;;
40707;SDS011;26392;42.696;23.350;2022-07-18T06:00:17;4.20;;;1.42;;
40707;SDS011;26392;42.696;23.350;2022-07-18T06:02:43;4.80;;;1.35;;
40707;SDS011;26392;42.696;23.350;2022-07-18T06:05:11;7.75;;;1.70;;
40707;SDS011;26392;42.696;23.350;2022-07-18T06:07:37;6.07;;;1.52;;
40707;SDS011;26392;42.696;23.350;2022-07-18T06:10:02;2.90;;;1.15;;
40707;SDS011;26392;42.696;23.350;2022-07-18T06:12:28;2.72;;;1.30;;
40707;SDS011;26392;42.696;23.350;2022-07-18T06:14:58;5.85;;;1.40;;
40707;SDS011;26392;42.696;23.350;2022-07-18T06:17:24;1.55;;;1.45;;
40707;SDS011;26392;42.696;23.350;2022-07-18T06:19:50;3.55;;;1.17;;
40707;SDS011;26392;42.696;23.350;2022-07-18T06:22:16;3.88;;;1.55;;
40707;SDS011;26392;42.696;23.350;2022-07-18T06:24:42;3.78;;;1.20;;
40707;SDS011;26392;42.696;23.350;2022-07-18T06:27:07;10.30;;;1.50;;
40707;SDS011;26392;42.696;23.350;2022-07-18T06:29:33;1.52;;;1.20;;
40707;SDS011;26392;42.696;23.350;2022-07-18T06:31:58;4.32;;;1.58;;
40707;SDS011;26392;42.696;23.350;2022-07-18T06:34:24;4.68;;;1.40;;
40707;SDS011;26392;42.696;23.350;2022-07-18T06:36:49;7.55;;;1.67;;
40707;SDS011;26392;42.696;23.350;2022-07-18T06:39:15;1.63;;;1.30;;
40707;SDS011;26392;42.696;23.350;2022-07-18T06:41:43;2.60;;;1.38;;
40707;SDS011;26392;42.696;23.350;2022-07-18T06:44:09;3.75;;;1.50;;
40707;SDS011;26392;42.696;23.350;2022-07-18T06:46:34;3.25;;;1.58;;
40707;SDS011;26392;42.696;23.350;2022-07-18T06:49:01;3.38;;;1.20;;
40707;SDS011;26392;42.696;23.350;2022-07-18T06:51:27;4.18;;;1.48;;
40707;SDS011;26392;42.696;23.350;2022-07-18T06:53:53;3.45;;;1.27;;
40707;SDS011;26392;42.696;23.350;2022-07-18T06:56:20;4.32;;;1.25;;
40707;SDS011;26392;42.696;23.350;2022-07-18T06:58:45;3.85;;;1.42;;
40707;SDS011;26392;42.696;23.350;2022-07-18T07:01:14;2.38;;;1.40;;
40707;SDS011;26392;42.696;23.350;2022-07-18T07:03:41;1.92;;;1.20;;
40707;SDS011;26392;42.696;23.350;2022-07-18T07:06:06;2.40;;;1.30;;
40707;SDS011;26392;42.696;23.350;2022-07-18T07:08:32;6.65;;;1.35;;
40707;SDS011;26392;42.696;23.350;2022-07-18T07:10:57;5.40;;;1.73;;
40707;SDS011;26392;42.696;23.350;2022-07-18T07:13:23;1.80;;;1.30;;
40707;SDS011;26392;42.696;23.350;2022-07-18T07:15:48;4.80;;;1.45;;
40707;SDS011;26392;42.696;23.350;2022-07-18T07:18:14;2.47;;;1.10;;
40707;SDS011;26392;42.696;23.350;2022-07-18T07:20:39;1.10;;;0.93;;
40707;SDS011;26392;42.696;23.350;2022-07-18T07:23:04;1.95;;;1.30;;
40707;SDS011;26392;42.696;23.350;2022-07-18T07:25:32;1.70;;;1.08;;
40707;SDS011;26392;42.696;23.350;2022-07-18T07:27:58;1.08;;;1.02;;
40707;SDS011;26392;42.696;23.350;2022-07-18T07:30:24;1.73;;;1.10;;
40707;SDS011;26392;42.696;23.350;2022-07-18T07:32:49;4.90;;;1.27;;
40707;SDS011;26392;42.696;23.350;2022-07-18T07:35:16;1.25;;;1.00;;
40707;SDS011;26392;42.696;23.350;2022-07-18T07:37:45;1.95;;;1.38;;
40707;SDS011;26392;42.696;23.350;2022-07-18T07:40:13;2.70;;;0.95;;
40707;SDS011;26392;42.696;23.350;2022-07-18T07:42:39;1.15;;;1.00;;
40707;SDS011;26392;42.696;23.350;2022-07-18T07:45:05;2.08;;;1.20;;
40707;SDS011;26392;42.696;23.350;2022-07-18T07:47:31;23.52;;;1.85;;
40707;SDS011;26392;42.696;23.350;2022-07-18T07:49:57;1.50;;;1.05;;
40707;SDS011;26392;42.696;23.350;2022-07-18T07:52:23;4.45;;;1.10;;
40707;SDS011;26392;42.696;23.350;2022-07-18T07:54:49;2.17;;;1.20;;
40707;SDS011;26392;42.696;23.350;2022-07-18T07:57:15;2.28;;;1.20;;
40707;SDS011;26392;42.696;23.350;2022-07-18T07:59:41;1.45;;;1.17;;
40707;SDS011;26392;42.696;23.350;2022-07-18T08:02:06;1.52;;;1.10;;
40707;SDS011;26392;42.696;23.350;2022-07-18T08:04:32;2.78;;;1.33;;
40707;SDS011;26392;42.696;23.350;2022-07-18T08:06:58;2.85;;;1.45;;
40707;SDS011;26392;42.696;23.350;2022-07-18T08:09:23;0.93;;;0.93;;
40707;SDS011;26392;42.696;23.350;2022-07-18T08:11:48;3.55;;;1.13;;
40707;SDS011;26392;42.696;23.350;2022-07-18T08:14:14;1.77;;;1.00;;
40707;SDS011;26392;42.696;23.350;2022-07-18T08:16:39;6.57;;;1.25;;
40707;SDS011;26392;42.696;23.350;2022-07-18T08:19:05;1.70;;;1.13;;
40707;SDS011;26392;42.696;23.350;2022-07-18T08:21:31;2.22;;;1.20;;
40707;SDS011;26392;42.696;23.350;2022-07-18T08:23:56;3.05;;;1.10;;
40707;SDS011;26392;42.696;23.350;2022-07-18T08:26:22;1.27;;;1.10;;
40707;SDS011;26392;42.696;23.350;2022-07-18T08:28:47;1.73;;;1.25;;
40707;SDS011;26392;42.696;23.350;2022-07-18T08:31:13;1.50;;;1.33;;
40707;SDS011;26392;42.696;23.350;2022-07-18T08:33:38;3.10;;;1.20;;
40707;SDS011;26392;42.696;23.350;2022-07-18T08:36:04;4.13;;;1.50;;
40707;SDS011;26392;42.696;23.350;2022-07-18T08:38:30;1.95;;;1.35;;
40707;SDS011;26392;42.696;23.350;2022-07-18T08:40:56;2.25;;;1.55;;
40707;SDS011;26392;42.696;23.350;2022-07-18T08:43:24;1.65;;;1.10;;
40707;SDS011;26392;42.696;23.350;2022-07-18T08:45:54;1.67;;;1.27;;
40707;SDS011;26392;42.696;23.350;2022-07-18T08:48:28;2.97;;;1.45;;
40707;SDS011;26392;42.696;23.350;2022-07-18T08:50:54;1.35;;;1.02;;
40707;SDS011;26392;42.696;23.350;2022-07-18T08:53:19;1.98;;;1.38;;
40707;SDS011;26392;42.696;23.350;2022-07-18T08:55:46;3.22;;;1.38;;
40707;SDS011;26392;42.696;23.350;2022-07-18T08:58:12;4.50;;;1.40;;
40707;SDS011;26392;42.696;23.350;2022-07-18T09:00:39;1.63;;;1.17;;
40707;SDS011;26392;42.696;23.350;2022-07-18T09:03:05;6.43;;;1.10;;
40707;SDS011;26392;42.696;23.350;2022-07-18T09:05:32;1.95;;;1.23;;
40707;SDS011;26392;42.696;23.350;2022-07-18T09:10:41;3.97;;;1.40;;
40707;SDS011;26392;42.696;23.350;2022-07-18T09:13:07;4.60;;;1.67;;
40707;SDS011;26392;42.696;23.350;2022-07-18T09:15:32;1.65;;;1.30;;
40707;SDS011;26392;42.696;23.350;2022-07-18T09:17:58;2.88;;;1.60;;
40707;SDS011;26392;42.696;23.350;2022-07-18T09:20:24;4.10;;;1.30;;
40707;SDS011;26392;42.696;23.350;2022-07-18T09:22:49;3.70;;;1.23;;
40707;SDS011;26392;42.696;23.350;2022-07-18T09:25:16;2.17;;;1.30;;
40707;SDS011;26392;42.696;23.350;2022-07-18T09:27:48;6.93;;;1.40;;
40707;SDS011;26392;42.696;23.350;2022-07-18T09:32:47;4.40;;;1.58;;
40707;SDS011;26392;42.696;23.350;2022-07-18T09:35:17;2.47;;;1.58;;
40707;SDS011;26392;42.696;23.350;2022-07-18T09:40:34;1.70;;;1.20;;
40707;SDS011;26392;42.696;23.350;2022-07-18T09:43:05;5.05;;;1.17;;
40707;SDS011;26392;42.696;23.350;2022-07-18T09:45:33;4.65;;;1.25;;
40707;SDS011;26392;42.696;23.350;2022-07-18T09:48:00;10.95;;;1.52;;
40707;SDS011;26392;42.696;23.350;2022-07-18T09:50:33;2.60;;;1.33;;
40707;SDS011;26392;42.696;23.350;2022-07-18T09:53:09;4.65;;;1.63;;
40707;SDS011;26392;42.696;23.350;2022-07-18T09:55:36;1.98;;;1.70;;
40707;SDS011;26392;42.696;23.350;2022-07-18T09:58:07;4.18;;;1.70;;
40707;SDS011;26392;42.696;23.350;2022-07-18T10:00:37;3.65;;;1.50;;
40707;SDS011;26392;42.696;23.350;2022-07-18T10:03:05;6.30;;;1.75;;
40707;SDS011;26392;42.696;23.350;2022-07-18T10:05:32;2.53;;;1.70;;
40707;SDS011;26392;42.696;23.350;2022-07-18T10:08:00;19.55;;;2.45;;
40707;SDS011;26392;42.696;23.350;2022-07-18T10:10:29;3.47;;;1.60;;
40707;SDS011;26392;42.696;23.350;2022-07-18T10:12:55;3.38;;;1.77;;
40707;SDS011;26392;42.696;23.350;2022-07-18T10:15:23;2.55;;;1.88;;
40707;SDS011;26392;42.696;23.350;2022-07-18T10:17:50;3.97;;;1.90;;
40707;SDS011;26392;42.696;23.350;2022-07-18T10:20:16;2.55;;;1.63;;
40707;SDS011;26392;42.696;23.350;2022-07-18T10:22:42;1.63;;;1.40;;
40707;SDS011;26392;42.696;23.350;2022-07-18T10:25:13;2.35;;;1.73;;
40707;SDS011;26392;42.696;23.350;2022-07-18T10:27:52;5.00;;;2.00;;
40707;SDS011;26392;42.696;23.350;2022-07-18T10:30:29;6.43;;;2.03;;
40707;SDS011;26392;42.696;23.350;2022-07-18T10:32:59;3.95;;;1.85;;
40707;SDS011;26392;42.696;23.350;2022-07-18T10:38:27;1.77;;;1.38;;
40707;SDS011;26392;42.696;23.350;2022-07-18T10:41:10;3.35;;;1.83;;
40707;SDS011;26392;42.696;23.350;2022-07-18T10:43:40;3.70;;;1.83;;
40707;SDS011;26392;42.696;23.350;2022-07-18T10:46:09;2.00;;;1.70;;
40707;SDS011;26392;42.696;23.350;2022-07-18T10:51:07;2.70;;;1.83;;
40707;SDS011;26392;42.696;23.350;2022-07-18T10:56:18;2.63;;;1.73;;
40707;SDS011;26392;42.696;23.350;2022-07-18T10:58:44;8.80;;;1.70;;
40707;SDS011;26392;42.696;23.350;2022-07-18T11:01:12;3.25;;;1.90;;
40707;SDS011;26392;42.696;23.350;2022-07-18T11:03:43;4.15;;;1.77;;
40707;SDS011;26392;42.696;23.350;2022-07-18T11:06:08;2.35;;;1.85;;
40707;SDS011;26392;42.696;23.350;2022-07-18T11:08:34;6.68;;;1.83;;
40707;SDS011;26392;42.696;23.350;2022-07-18T11:11:04;3.72;;;1.52;;
40707;SDS011;26392;42.696;23.350;2022-07-18T11:13:32;2.28;;;1.73;;
40707;SDS011;26392;42.696;23.350;2022-07-18T11:23:44;4.63;;;2.00;;
40707;SDS011;26392;42.696;23.350;2022-07-18T11:26:21;4.45;;;2.28;;
40707;SDS011;26392;42.696;23.350;2022-07-18T11:28:48;3.65;;;2.22;;
40707;SDS011;26392;42.696;23.350;2022-07-18T11:31:21;7.13;;;2.00;;
40707;SDS011;26392;42.696;23.350;2022-07-18T11:33:47;4.97;;;1.80;;
40707;SDS011;26392;42.696;23.350;2022-07-18T11:36:15;1.88;;;1.38;;
40707;SDS011;26392;42.696;23.350;2022-07-18T11:38:54;3.38;;;2.30;;
40707;SDS011;26392;42.696;23.350;2022-07-18T11:41:21;2.25;;;1.85;;
40707;SDS011;26392;42.696;23.350;2022-07-18T11:43:51;2.25;;;1.70;;
40707;SDS011;26392;42.696;23.350;2022-07-18T11:46:18;2.25;;;1.83;;
40707;SDS011;26392;42.696;23.350;2022-07-18T11:48:48;3.53;;;1.73;;
40707;SDS011;26392;42.696;23.350;2022-07-18T11:51:22;4.57;;;1.98;;
40707;SDS011;26392;42.696;23.350;2022-07-18T11:53:51;3.63;;;2.00;;
40707;SDS011;26392;42.696;23.350;2022-07-18T11:56:21;1.80;;;1.70;;
40707;SDS011;26392;42.696;23.350;2022-07-18T11:58:47;4.10;;;2.00;;
40707;SDS011;26392;42.696;23.350;2022-07-18T12:01:14;3.20;;;1.80;;
40707;SDS011;26392;42.696;23.350;2022-07-18T12:03:41;4.00;;;2.00;;
40707;SDS011;26392;42.696;23.350;2022-07-18T12:06:28;2.25;;;1.90;;
40707;SDS011;26392;42.696;23.350;2022-07-18T12:08:54;2.67;;;1.95;;
40707;SDS011;26392;42.696;23.350;2022-07-18T12:16:36;2.58;;;1.92;;
40707;SDS011;26392;42.696;23.350;2022-07-18T12:24:17;4.28;;;2.25;;
40707;SDS011;26392;42.696;23.350;2022-07-18T12:27:06;2.80;;;1.90;;
40707;SDS011;26392;42.696;23.350;2022-07-18T12:29:53;4.60;;;2.22;;
40707;SDS011;26392;42.696;23.350;2022-07-18T12:32:55;3.38;;;2.00;;
40707;SDS011;26392;42.696;23.350;2022-07-18T12:35:33;3.50;;;2.15;;
40707;SDS011;26392;42.696;23.350;2022-07-18T12:38:12;2.05;;;1.85;;
40707;SDS011;26392;42.696;23.350;2022-07-18T12:40:58;2.03;;;1.70;;
40707;SDS011;26392;42.696;23.350;2022-07-18T12:46:02;3.58;;;2.10;;
40707;SDS011;26392;42.696;23.350;2022-07-18T12:48:31;4.40;;;2.10;;
40707;SDS011;26392;42.696;23.350;2022-07-18T12:51:02;2.40;;;2.00;;
40707;SDS011;26392;42.696;23.350;2022-07-18T12:53:29;3.05;;;2.13;;
40707;SDS011;26392;42.696;23.350;2022-07-18T12:55:56;3.45;;;2.00;;
40707;SDS011;26392;42.696;23.350;2022-07-18T12:58:22;3.15;;;1.83;;
40707;SDS011;26392;42.696;23.350;2022-07-18T13:00:48;2.25;;;2.05;;
40707;SDS011;26392;42.696;23.350;2022-07-18T13:03:14;3.72;;;1.95;;
40707;SDS011;26392;42.696;23.350;2022-07-18T13:05:40;3.08;;;1.80;;
40707;SDS011;26392;42.696;23.350;2022-07-18T13:08:06;3.95;;;2.00;;
40707;SDS011;26392;42.696;23.350;2022-07-18T13:10:34;4.25;;;2.30;;
40707;SDS011;26392;42.696;23.350;2022-07-18T13:13:03;3.55;;;2.47;;
40707;SDS011;26392;42.696;23.350;2022-07-18T13:15:29;2.38;;;2.00;;
40707;SDS011;26392;42.696;23.350;2022-07-18T13:17:55;5.20;;;2.38;;
40707;SDS011;26392;42.696;23.350;2022-07-18T13:20:22;4.55;;;2.15;;
40707;SDS011;26392;42.696;23.350;2022-07-18T13:22:47;3.22;;;1.80;;
40707;SDS011;26392;42.696;23.350;2022-07-18T13:25:13;6.80;;;2.22;;
40707;SDS011;26392;42.696;23.350;2022-07-18T13:27:38;5.30;;;2.40;;
40707;SDS011;26392;42.696;23.350;2022-07-18T13:30:05;10.13;;;2.63;;
40707;SDS011;26392;42.696;23.350;2022-07-18T13:32:32;3.28;;;2.20;;
40707;SDS011;26392;42.696;23.350;2022-07-18T13:34:58;9.25;;;2.60;;
40707;SDS011;26392;42.696;23.350;2022-07-18T13:37:23;3.25;;;1.85;;
40707;SDS011;26392;42.696;23.350;2022-07-18T13:39:49;3.25;;;2.00;;
40707;SDS011;26392;42.696;23.350;2022-07-18T13:42:14;3.00;;;1.98;;
40707;SDS011;26392;42.696;23.350;2022-07-18T13:44:40;2.28;;;1.85;;
40707;SDS011;26392;42.696;23.350;2022-07-18T13:47:06;2.20;;;1.92;;
40707;SDS011;26392;42.696;23.350;2022-07-18T13:49:31;5.47;;;2.08;;
40707;SDS011;26392;42.696;23.350;2022-07-18T13:51:57;2.28;;;1.85;;
40707;SDS011;26392;42.696;23.350;2022-07-18T13:54:22;3.72;;;2.00;;
40707;SDS011;26392;42.696;23.350;2022-07-18T13:56:48;4.88;;;2.05;;
40707;SDS011;26392;42.696;23.350;2022-07-18T13:59:13;2.20;;;2.00;;
40707;SDS011;26392;42.696;23.350;2022-07-18T14:01:40;4.53;;;2.28;;
40707;SDS011;26392;42.696;23.350;2022-07-18T14:04:07;3.55;;;2.20;;
40707;SDS011;26392;42.696;23.350;2022-07-18T14:06:32;2.80;;;2.15;;
40707;SDS011;26392;42.696;23.350;2022-07-18T14:09:00;5.25;;;2.55;;
40707;SDS011;26392;42.696;23.350;2022-07-18T14:11:26;4.03;;;2.25;;
40707;SDS011;26392;42.696;23.350;2022-07-18T14:13:52;3.45;;;2.08;;
40707;SDS011;26392;42.696;23.350;2022-07-18T14:16:17;4.68;;;2.40;;
40707;SDS011;26392;42.696;23.350;2022-07-18T14:18:43;2.92;;;2.55;;
40707;SDS011;26392;42.696;23.350;2022-07-18T14:21:08;2.35;;;2.15;;
40707;SDS011;26392;42.696;23.350;2022-07-18T14:23:33;3.80;;;2.08;;
40707;SDS011;26392;42.696;23.350;2022-07-18T14:25:59;4.45;;;2.60;;
40707;SDS011;26392;42.696;23.350;2022-07-18T14:28:24;4.22;;;2.40;;
40707;SDS011;26392;42.696;23.350;2022-07-18T14:30:50;4.85;;;3.15;;
40707;SDS011;26392;42.696;23.350;2022-07-18T14:33:15;3.13;;;2.50;;
40707;SDS011;26392;42.696;23.350;2022-07-18T14:35:41;3.22;;;2.50;;
40707;SDS011;26392;42.696;23.350;2022-07-18T14:38:06;3.58;;;2.60;;
40707;SDS011;26392;42.696;23.350;2022-07-18T14:40:32;2.70;;;2.47;;
40707;SDS011;26392;42.696;23.350;2022-07-18T14:42:57;3.17;;;2.13;;
40707;SDS011;26392;42.696;23.350;2022-07-18T14:45:22;4.05;;;2.45;;
40707;SDS011;26392;42.696;23.350;2022-07-18T14:47:48;5.60;;;2.45;;
40707;SDS011;26392;42.696;23.350;2022-07-18T14:50:13;6.20;;;2.40;;
40707;SDS011;26392;42.696;23.350;2022-07-18T14:52:39;2.90;;;2.45;;
40707;SDS011;26392;42.696;23.350;2022-07-18T14:55:05;3.75;;;2.20;;
40707;SDS011;26392;42.696;23.350;2022-07-18T14:57:31;3.53;;;2.58;;
40707;SDS011;26392;42.696;23.350;2022-07-18T14:59:57;3.60;;;2.10;;
40707;SDS011;26392;42.696;23.350;2022-07-18T15:02:22;2.72;;;2.10;;
40707;SDS011;26392;42.696;23.350;2022-07-18T15:04:48;2.42;;;2.13;;
40707;SDS011;26392;42.696;23.350;2022-07-18T15:07:13;2.85;;;2.30;;
40707;SDS011;26392;42.696;23.350;2022-07-18T15:09:39;5.80;;;2.60;;